createdAt,value
2023-01-25T00:00:04.219Z,24.95
2023-01-25T00:02:10.473Z,27.50
2023-01-25T00:04:15.749Z,28.48
2023-01-25T00:06:21.374Z,28.90
2023-01-25T00:08:28.944Z,27.17
2023-01-25T00:10:33.960Z,26.58
2023-01-25T00:12:39.085Z,29.10
2023-01-25T00:14:44.101Z,30.65
2023-01-25T00:16:49.791Z,29.52
2023-01-25T00:18:55.176Z,27.88
2023-01-25T00:21:01.212Z,26.67
2023-01-25T00:23:06.214Z,28.50
2023-01-25T00:25:15.344Z,27.02
2023-01-25T00:27:20.345Z,26.05
2023-01-25T00:29:25.797Z,28.30
2023-01-25T00:31:44.868Z,27.40
2023-01-25T00:33:58.716Z,27.88
2023-01-25T00:36:04.506Z,30.23
2023-01-25T00:38:27.639Z,28.98
2023-01-25T00:40:35.203Z,31.00
2023-01-25T00:42:40.151Z,33.45
2023-01-25T00:44:45.513Z,31.45
2023-01-25T00:46:51.402Z,30.40
2023-01-25T00:48:57.761Z,31.40
2023-01-25T00:51:04.225Z,29.30
2023-01-25T00:53:09.236Z,28.65
2023-01-25T00:55:14.381Z,30.17
2023-01-25T00:57:22.296Z,29.83
2023-01-25T00:59:28.234Z,33.38
2023-01-25T01:01:33.330Z,32.10
2023-01-25T01:03:38.909Z,30.92
2023-01-25T01:05:45.129Z,36.75
2023-01-25T01:07:52.663Z,29.75
2023-01-25T01:09:58.125Z,36.70
2023-01-25T01:12:03.562Z,33.67
2023-01-25T01:14:12.388Z,31.98
2023-01-25T01:16:17.463Z,28.95
2023-01-25T01:18:22.449Z,29.23
2023-01-25T01:20:28.063Z,30.60
2023-01-25T01:22:33.132Z,30.17
2023-01-25T01:24:38.022Z,29.60
2023-01-25T01:26:43.075Z,29.65
2023-01-25T01:28:49.295Z,32.25
2023-01-25T01:30:56.992Z,27.77
2023-01-25T01:33:02.497Z,33.00
2023-01-25T01:35:09.832Z,30.67
2023-01-25T01:37:15.490Z,30.45
2023-01-25T01:39:21.052Z,34.92
2023-01-25T01:41:26.081Z,30.60
2023-01-25T01:43:31.527Z,31.75
2023-01-25T01:45:57.464Z,31.73
2023-01-25T01:48:14.718Z,33.63
2023-01-25T01:50:26.316Z,33.30
2023-01-25T01:52:36.191Z,28.42
2023-01-25T01:54:45.566Z,29.85
2023-01-25T01:56:58.214Z,30.13
2023-01-25T02:01:12.318Z,32.97
2023-01-25T02:03:17.776Z,34.80
2023-01-25T02:05:28.984Z,32.35
2023-01-25T02:07:37.133Z,31.55
2023-01-25T02:09:43.409Z,33.38
2023-01-25T02:11:49.796Z,35.75
2023-01-25T02:13:56.621Z,30.33
2023-01-25T02:16:02.067Z,31.73
2023-01-25T02:18:10.963Z,31.67
2023-01-25T02:20:27.830Z,31.77
2023-01-25T02:22:42.928Z,31.15
2023-01-25T02:25:18.723Z,28.23
2023-01-25T02:27:26.370Z,26.25
2023-01-25T02:29:33.387Z,27.45
2023-01-25T02:31:38.473Z,27.73
2023-01-25T02:33:43.397Z,29.70
2023-01-25T02:35:53.967Z,32.95
2023-01-25T02:37:59.167Z,27.83
2023-01-25T02:40:05.787Z,26.92
2023-01-25T02:42:11.128Z,27.48
2023-01-25T02:44:26.508Z,26.55
2023-01-25T02:46:36.042Z,26.83
2023-01-25T02:48:41.258Z,30.05
2023-01-25T02:50:46.180Z,27.50
2023-01-25T02:52:51.040Z,29.58
2023-01-25T02:54:56.256Z,29.63
2023-01-25T02:57:01.597Z,30.83
2023-01-25T02:59:14.615Z,30.80
2023-01-25T03:01:26.837Z,30.45
2023-01-25T03:03:32.186Z,32.15
2023-01-25T03:05:37.205Z,29.38
2023-01-25T03:07:42.191Z,29.88
2023-01-25T03:09:47.552Z,28.13
2023-01-25T03:11:52.477Z,27.05
2023-01-25T03:13:59.693Z,29.45
2023-01-25T03:16:08.222Z,23.85
2023-01-25T03:18:15.876Z,27.23
2023-01-25T03:20:21.990Z,26.17
2023-01-25T03:22:26.907Z,24.25
2023-01-25T03:24:32.184Z,25.38
2023-01-25T03:26:57.955Z,25.77
2023-01-25T03:29:10.566Z,28.83
2023-01-25T03:31:20.227Z,24.80
2023-01-25T03:33:28.913Z,25.00
2023-01-25T03:35:33.933Z,24.77
2023-01-25T03:37:39.130Z,26.92
2023-01-25T03:39:44.836Z,25.40
2023-01-25T03:41:50.043Z,27.13
2023-01-25T03:43:55.295Z,28.33
2023-01-25T03:46:04.258Z,26.50
2023-01-25T03:48:11.349Z,29.90
2023-01-25T03:50:19.675Z,28.42
2023-01-25T03:52:26.897Z,25.48
2023-01-25T03:54:32.160Z,27.85
2023-01-25T03:56:38.749Z,26.60
2023-01-25T03:58:56.135Z,28.95
2023-01-25T04:01:03.919Z,24.77
2023-01-25T04:03:09.249Z,31.27
2023-01-25T04:05:14.238Z,29.23
2023-01-25T04:07:22.393Z,27.20
2023-01-25T04:09:27.532Z,29.08
2023-01-25T04:11:35.371Z,28.58
2023-01-25T04:13:42.063Z,32.40
2023-01-25T04:15:49.785Z,27.25
2023-01-25T04:18:09.512Z,31.00
2023-01-25T04:20:15.863Z,32.53
2023-01-25T04:22:24.675Z,28.85
2023-01-25T04:24:32.258Z,30.50
2023-01-25T04:26:37.774Z,26.38
2023-01-25T04:28:43.877Z,35.38
2023-01-25T04:30:49.770Z,28.80
2023-01-25T04:32:55.877Z,32.35
2023-01-25T04:35:05.209Z,28.10
2023-01-25T04:37:10.211Z,27.20
2023-01-25T04:39:27.544Z,29.08
2023-01-25T04:41:32.844Z,29.75
2023-01-25T04:43:37.950Z,26.75
2023-01-25T04:45:47.317Z,34.72
2023-01-25T04:48:04.175Z,32.35
2023-01-25T04:50:10.475Z,27.13
2023-01-25T04:52:16.453Z,26.75
2023-01-25T04:54:21.336Z,28.73
2023-01-25T04:56:29.102Z,30.27
2023-01-25T04:58:36.761Z,28.58
2023-01-25T05:00:42.023Z,28.90
2023-01-25T05:02:49.392Z,29.58
2023-01-25T05:04:54.486Z,28.10
2023-01-25T05:07:00.228Z,24.38
2023-01-25T05:09:06.016Z,25.40
2023-01-25T05:11:13.248Z,22.90
2023-01-25T05:13:30.940Z,25.48
2023-01-25T05:15:46.414Z,26.30
2023-01-25T05:17:51.623Z,26.40
2023-01-25T05:19:56.562Z,26.90
2023-01-25T05:22:00.137Z,26.83
2023-01-25T05:24:16.642Z,28.98
2023-01-25T05:26:34.351Z,28.80
2023-01-25T05:28:41.937Z,26.73
2023-01-25T05:31:12.693Z,28.80
2023-01-25T05:33:17.919Z,30.90
2023-01-25T05:35:23.185Z,26.05
2023-01-25T05:37:32.185Z,28.88
2023-01-25T05:39:43.997Z,25.63
2023-01-25T05:41:49.032Z,25.13
2023-01-25T05:43:56.529Z,29.88
2023-01-25T05:46:02.677Z,26.23
2023-01-25T05:48:09.365Z,26.02
2023-01-25T05:50:14.675Z,25.38
2023-01-25T05:52:41.560Z,23.98
2023-01-25T05:54:46.634Z,27.95
2023-01-25T05:56:53.526Z,26.45
2023-01-25T05:59:03.462Z,25.58
2023-01-25T06:01:10.794Z,26.08
2023-01-25T06:03:26.418Z,28.90
2023-01-25T06:05:31.780Z,26.60
2023-01-25T06:07:38.251Z,30.85
2023-01-25T06:09:43.163Z,27.38
2023-01-25T06:11:48.445Z,29.13
2023-01-25T06:13:53.939Z,33.20
2023-01-25T06:16:02.048Z,29.42
2023-01-25T06:18:18.872Z,29.33
2023-01-25T06:20:37.675Z,30.25
2023-01-25T06:22:45.494Z,30.63
2023-01-25T06:24:50.865Z,26.27
2023-01-25T06:26:55.902Z,27.23
2023-01-25T06:29:00.999Z,25.58
2023-01-25T06:31:14.810Z,25.15
2023-01-25T06:33:20.931Z,24.65
2023-01-25T06:35:28.886Z,29.73
2023-01-25T06:37:33.784Z,29.23
2023-01-25T06:39:38.650Z,26.58
2023-01-25T06:41:43.536Z,28.58
2023-01-25T06:43:48.623Z,27.63
2023-01-25T06:45:53.486Z,27.33
2023-01-25T06:48:01.288Z,23.83
2023-01-25T06:50:06.840Z,26.92
2023-01-25T06:52:11.718Z,25.58
2023-01-25T06:54:16.737Z,28.55
2023-01-25T06:56:24.934Z,27.95
2023-01-25T06:58:31.064Z,28.23
2023-01-25T07:00:35.961Z,24.67
2023-01-25T07:02:41.340Z,28.65
2023-01-25T07:04:48.827Z,28.15
2023-01-25T07:06:53.738Z,23.95
2023-01-25T07:08:58.895Z,28.55
2023-01-25T07:11:09.492Z,27.77
2023-01-25T07:13:14.727Z,32.13
2023-01-25T07:15:19.958Z,32.25
2023-01-25T07:17:25.060Z,26.83
2023-01-25T07:19:30.032Z,29.92
2023-01-25T07:21:38.076Z,28.65
2023-01-25T07:23:43.122Z,29.25
2023-01-25T07:25:49.068Z,29.08
2023-01-25T07:27:53.974Z,27.73
2023-01-25T07:29:59.216Z,28.95
2023-01-25T07:32:04.119Z,30.65
2023-01-25T07:34:11.630Z,37.75
2023-01-25T07:36:16.541Z,38.83
2023-01-25T07:38:24.424Z,36.70
2023-01-25T07:40:29.800Z,35.38
2023-01-25T07:42:35.091Z,32.08
2023-01-25T07:44:51.197Z,31.10
2023-01-25T07:46:56.777Z,36.83
2023-01-25T07:49:02.561Z,34.30
2023-01-25T07:51:22.887Z,30.63
2023-01-25T07:53:30.802Z,32.17
2023-01-25T07:55:35.930Z,33.97
2023-01-25T07:57:40.972Z,32.00
2023-01-25T07:59:45.943Z,32.13
2023-01-25T08:01:50.800Z,33.22
2023-01-25T08:03:57.660Z,30.73
2023-01-25T08:06:05.336Z,32.38
2023-01-25T08:08:10.426Z,31.45
2023-01-25T08:10:18.631Z,32.38
2023-01-25T08:12:23.591Z,32.28
2023-01-25T08:14:29.348Z,29.20
2023-01-25T08:16:35.733Z,33.70
2023-01-25T08:18:41.103Z,35.75
2023-01-25T08:20:46.024Z,38.70
2023-01-25T08:22:51.197Z,35.72
2023-01-25T08:24:57.023Z,33.60
2023-01-25T08:27:04.488Z,35.72
2023-01-25T08:29:10.072Z,37.22
2023-01-25T08:31:18.666Z,34.60
2023-01-25T08:33:23.599Z,33.33
2023-01-25T08:35:29.382Z,31.08
2023-01-25T08:37:34.298Z,29.38
2023-01-25T08:39:39.191Z,31.55
2023-01-25T08:41:45.620Z,30.45
2023-01-25T08:43:56.298Z,32.92
2023-01-25T08:46:02.611Z,31.73
2023-01-25T08:48:08.320Z,33.47
2023-01-25T08:50:15.050Z,26.95
2023-01-25T08:52:21.860Z,28.73
2023-01-25T08:54:28.406Z,30.67
2023-01-25T08:56:33.289Z,27.92
2023-01-25T08:58:41.782Z,29.10
2023-01-25T09:00:49.648Z,29.15
2023-01-25T09:02:54.764Z,31.42
2023-01-25T09:04:59.599Z,29.05
2023-01-25T09:07:04.453Z,30.25
2023-01-25T09:09:10.651Z,34.25
2023-01-25T09:11:19.174Z,30.27
2023-01-25T09:13:24.108Z,32.40
2023-01-25T09:15:29.632Z,26.80
2023-01-25T09:17:39.032Z,27.67
2023-01-25T09:19:44.366Z,27.70
2023-01-25T09:21:49.263Z,28.45
2023-01-25T09:24:11.474Z,27.95
2023-01-25T09:26:16.483Z,28.27
2023-01-25T09:28:21.332Z,24.92
2023-01-25T09:30:37.269Z,27.67
2023-01-25T09:33:00.585Z,26.63
2023-01-25T09:35:06.286Z,29.60
2023-01-25T09:37:11.513Z,33.88
2023-01-25T09:39:16.539Z,32.05
2023-01-25T09:41:42.758Z,32.60
2023-01-25T09:44:15.441Z,27.05
2023-01-25T09:46:29.222Z,32.88
2023-01-25T09:48:46.628Z,30.05
2023-01-25T09:51:17.692Z,29.48
2023-01-25T09:53:36.276Z,26.70
2023-01-25T09:55:42.678Z,29.98
2023-01-25T09:57:51.001Z,29.42
2023-01-25T10:00:01.063Z,28.75
2023-01-25T10:02:19.996Z,28.88
2023-01-25T10:04:31.537Z,31.58
2023-01-25T10:06:55.163Z,30.92
2023-01-25T10:09:16.105Z,30.40
2023-01-25T10:11:27.095Z,27.83
2023-01-25T10:13:32.706Z,26.70
2023-01-25T10:15:43.546Z,32.13
2023-01-25T10:17:51.525Z,25.42
2023-01-25T10:20:18.297Z,26.60
2023-01-25T10:22:28.871Z,27.70
2023-01-25T10:24:53.598Z,30.33
2023-01-25T10:27:04.647Z,30.83
2023-01-25T10:29:20.445Z,30.63
2023-01-25T10:31:35.847Z,28.60
2023-01-25T10:33:46.373Z,30.45
2023-01-25T10:35:53.849Z,32.42
2023-01-25T10:38:05.755Z,30.00
2023-01-25T10:40:22.713Z,32.47
2023-01-25T10:42:32.456Z,29.55
2023-01-25T10:44:39.038Z,30.35
2023-01-25T10:46:48.611Z,31.83
2023-01-25T10:48:53.781Z,31.80
2023-01-25T10:51:01.698Z,29.98
2023-01-25T10:53:07.126Z,28.75
2023-01-25T10:55:20.310Z,28.52
2023-01-25T10:57:25.874Z,28.42
2023-01-25T10:59:32.086Z,26.38
2023-01-25T11:01:39.398Z,27.45
2023-01-25T11:03:46.807Z,31.30
2023-01-25T11:06:00.483Z,27.05
2023-01-25T11:08:27.174Z,31.10
2023-01-25T11:10:35.042Z,27.70
2023-01-25T11:12:39.961Z,28.02
2023-01-25T11:14:45.377Z,29.67
2023-01-25T11:16:51.197Z,28.88
2023-01-25T11:18:58.849Z,33.30
2023-01-25T11:21:19.373Z,32.33
2023-01-25T11:23:27.856Z,29.50
2023-01-25T11:25:36.430Z,29.92
2023-01-25T11:27:41.283Z,31.15
2023-01-25T11:29:47.171Z,28.92
2023-01-25T11:31:54.915Z,27.15
2023-01-25T11:34:00.266Z,29.85
2023-01-25T11:36:25.235Z,29.10
2023-01-25T11:38:30.862Z,28.50
2023-01-25T11:40:43.884Z,30.33
2023-01-25T11:43:05.645Z,27.73
2023-01-25T11:45:51.472Z,34.65
2023-01-25T11:48:19.406Z,26.48
2023-01-25T11:50:33.894Z,28.83
2023-01-25T11:53:03.289Z,31.02
2023-01-25T11:55:27.622Z,30.77
2023-01-25T11:58:03.903Z,29.90
2023-01-25T12:00:38.611Z,29.30
2023-01-25T12:03:31.797Z,31.58
2023-01-25T12:05:54.954Z,29.00
2023-01-25T12:08:22.931Z,39.10
2023-01-25T12:10:42.112Z,29.77
2023-01-25T12:12:56.942Z,31.02
2023-01-25T12:15:24.253Z,28.42
2023-01-25T12:17:48.017Z,31.48
2023-01-25T12:20:16.733Z,36.42
2023-01-25T12:22:41.233Z,39.00
2023-01-25T12:25:01.272Z,31.05
2023-01-25T12:27:19.197Z,31.90
2023-01-25T12:29:32.869Z,33.15
2023-01-25T12:31:48.617Z,35.00
2023-01-25T12:34:03.198Z,32.60
2023-01-25T12:36:16.335Z,32.78
2023-01-25T12:38:29.997Z,33.38
2023-01-25T12:40:51.657Z,36.50
2023-01-25T12:43:02.715Z,32.80
2023-01-25T12:45:16.958Z,35.30
2023-01-25T12:47:27.797Z,35.35
2023-01-25T12:49:39.189Z,33.63
2023-01-25T12:51:46.707Z,33.85
2023-01-25T12:53:52.335Z,32.65
2023-01-25T12:56:02.323Z,33.97
2023-01-25T12:58:23.827Z,34.00
2023-01-25T13:00:46.149Z,34.20
2023-01-25T13:03:15.085Z,30.45
2023-01-25T13:05:33.873Z,32.70
2023-01-25T13:07:46.418Z,35.22
2023-01-25T13:10:05.080Z,30.08
2023-01-25T13:12:15.603Z,34.63
2023-01-25T13:14:32.402Z,31.13
2023-01-25T13:16:44.227Z,31.50
2023-01-25T13:18:49.837Z,31.45
2023-01-25T13:20:56.807Z,32.35
2023-01-25T13:23:02.817Z,31.00
2023-01-25T13:25:22.959Z,33.80
2023-01-25T13:27:34.737Z,30.35
2023-01-25T13:29:49.386Z,39.03
2023-01-25T13:31:57.851Z,37.55
2023-01-25T13:34:03.605Z,33.45
2023-01-25T13:36:41.527Z,32.95
2023-01-25T13:38:46.553Z,34.10
2023-01-25T13:41:10.767Z,29.52
2023-01-25T13:43:24.921Z,37.67
2023-01-25T13:45:31.099Z,36.45
2023-01-25T13:47:39.934Z,31.48
2023-01-25T13:49:49.905Z,37.13
2023-01-25T13:51:54.810Z,32.90
2023-01-25T13:54:01.739Z,33.80
2023-01-25T13:56:06.860Z,29.65
2023-01-25T13:58:14.053Z,33.17
2023-01-25T14:00:24.023Z,30.33
2023-01-25T14:02:30.262Z,25.52
2023-01-25T14:04:35.217Z,26.70
2023-01-25T14:06:42.719Z,31.98
2023-01-25T14:08:49.711Z,25.83
2023-01-25T14:10:55.801Z,26.90
2023-01-25T14:13:03.520Z,27.70
2023-01-25T14:15:26.342Z,28.30
2023-01-25T14:17:31.332Z,27.23
2023-01-25T14:19:41.431Z,28.10
2023-01-25T14:21:46.243Z,25.10
2023-01-25T14:23:52.330Z,25.77
2023-01-25T14:25:59.318Z,22.02
2023-01-25T14:28:09.428Z,24.55
2023-01-25T14:30:25.393Z,23.80
2023-01-25T14:32:31.156Z,22.05
2023-01-25T14:34:36.096Z,23.65
2023-01-25T14:36:40.964Z,20.35
2023-01-25T14:38:46.591Z,21.25
2023-01-25T14:40:53.304Z,20.95
2023-01-25T14:43:00.174Z,17.92
2023-01-25T14:45:09.479Z,19.70
2023-01-25T14:47:34.778Z,18.05
2023-01-25T14:49:39.614Z,17.75
2023-01-25T14:51:47.866Z,20.48
2023-01-25T14:54:06.088Z,19.77
2023-01-25T14:56:30.377Z,20.83
2023-01-25T14:58:35.567Z,18.33
2023-01-25T15:00:40.939Z,19.95
2023-01-25T15:02:55.155Z,19.05
2023-01-25T15:05:14.503Z,19.08
2023-01-25T15:07:38.847Z,17.40
2023-01-25T15:09:44.996Z,19.63
2023-01-25T15:11:50.844Z,22.67
2023-01-25T15:14:05.963Z,19.92
2023-01-25T15:16:11.497Z,22.67
2023-01-25T15:18:51.030Z,23.38
2023-01-25T15:20:55.956Z,24.25
2023-01-25T15:23:04.825Z,25.40
2023-01-25T15:25:22.642Z,24.77
2023-01-25T15:27:28.700Z,24.27
2023-01-25T15:29:33.564Z,23.73
2023-01-25T15:31:40.553Z,24.13
2023-01-25T15:33:45.534Z,25.65
2023-01-25T15:35:54.252Z,24.70
2023-01-25T15:37:59.137Z,28.10
2023-01-25T15:40:03.996Z,27.20
2023-01-25T15:42:09.057Z,24.88
2023-01-25T15:44:15.133Z,26.55
2023-01-25T15:46:24.331Z,27.98
2023-01-25T15:48:35.690Z,27.80
2023-01-25T15:50:40.795Z,26.23
2023-01-25T15:52:49.214Z,26.88
2023-01-25T15:55:01.359Z,27.80
2023-01-25T15:59:20.089Z,28.27
2023-01-25T16:01:27.550Z,28.27
2023-01-25T16:03:33.503Z,26.83
2023-01-25T16:05:39.682Z,26.13
2023-01-25T16:07:48.651Z,27.23
2023-01-25T16:09:54.395Z,30.65
2023-01-25T16:12:02.021Z,30.83
2023-01-25T16:14:07.599Z,34.85
2023-01-25T16:16:21.315Z,30.10
2023-01-25T16:18:26.559Z,29.83
2023-01-25T16:20:32.427Z,31.20
2023-01-25T16:22:37.301Z,29.67
2023-01-25T16:24:45.402Z,31.05
2023-01-25T16:26:54.832Z,33.70
2023-01-25T16:29:00.098Z,29.48
2023-01-25T16:31:05.492Z,29.48
2023-01-25T16:33:11.012Z,31.05
2023-01-25T16:35:16.367Z,36.40
2023-01-25T16:37:21.511Z,31.63
2023-01-25T16:39:28.346Z,28.75
2023-01-25T16:41:37.097Z,31.92
2023-01-25T16:43:43.873Z,33.85
2023-01-25T16:45:49.145Z,35.55
2023-01-25T16:47:54.576Z,34.60
2023-01-25T16:49:59.459Z,34.75
2023-01-25T16:52:06.088Z,33.28
2023-01-25T16:54:13.894Z,34.33
2023-01-25T16:56:21.379Z,32.55
2023-01-25T16:58:28.822Z,36.75
2023-01-25T17:00:34.351Z,35.92
2023-01-25T17:02:41.906Z,35.75
2023-01-25T17:04:51.996Z,34.42
2023-01-25T17:06:58.872Z,36.05
2023-01-25T17:09:21.648Z,34.22
2023-01-25T17:11:28.395Z,33.58
2023-01-25T17:13:36.080Z,31.02
2023-01-25T17:15:41.285Z,33.60
2023-01-25T17:17:47.099Z,34.92
2023-01-25T17:19:52.658Z,34.85
2023-01-25T17:21:59.170Z,37.35
2023-01-25T17:24:05.581Z,35.33
2023-01-25T17:26:14.523Z,35.85
2023-01-25T17:28:19.782Z,35.05
2023-01-25T17:30:27.373Z,32.83
2023-01-25T17:32:32.317Z,32.50
2023-01-25T17:34:37.628Z,37.63
2023-01-25T17:36:43.595Z,31.92
2023-01-25T17:38:48.759Z,35.33
2023-01-25T17:40:54.436Z,34.28
2023-01-25T17:42:59.332Z,35.63
2023-01-25T17:45:05.003Z,31.48
2023-01-25T17:47:12.459Z,32.40
2023-01-25T17:49:19.560Z,35.25
2023-01-25T17:51:25.231Z,35.05
2023-01-25T17:53:30.423Z,36.08
2023-01-25T17:55:39.010Z,31.73
2023-01-25T17:57:44.513Z,33.35
2023-01-25T17:59:49.395Z,36.20
2023-01-25T18:01:56.524Z,38.17
2023-01-25T18:04:04.369Z,35.38
2023-01-25T18:06:10.708Z,39.53
2023-01-25T18:08:16.491Z,36.38
2023-01-25T18:10:21.646Z,35.53
2023-01-25T18:12:27.687Z,35.00
2023-01-25T18:14:33.004Z,34.28
2023-01-25T18:16:41.140Z,34.20
2023-01-25T18:18:47.938Z,32.63
2023-01-25T18:20:55.453Z,35.10
2023-01-25T18:23:01.205Z,33.20
2023-01-25T18:25:06.876Z,31.80
2023-01-25T18:27:23.063Z,32.95
2023-01-25T18:29:49.158Z,37.08
2023-01-25T18:31:55.694Z,37.05
2023-01-25T18:34:01.196Z,36.10
2023-01-25T18:36:09.837Z,34.88
2023-01-25T18:38:15.302Z,33.35
2023-01-25T18:40:21.318Z,36.13
2023-01-25T18:42:28.475Z,32.80
2023-01-25T18:44:34.844Z,31.65
2023-01-25T18:46:41.592Z,30.13
2023-01-25T18:48:47.328Z,32.40
2023-01-25T18:50:52.703Z,30.27
2023-01-25T18:53:00.621Z,29.73
2023-01-25T18:55:05.736Z,36.40
2023-01-25T18:57:12.120Z,34.97
2023-01-25T18:59:17.203Z,33.97
2023-01-25T19:01:24.359Z,36.55
2023-01-25T19:03:30.509Z,36.67
2023-01-25T19:05:38.003Z,37.50
2023-01-25T19:07:42.976Z,43.85
2023-01-25T19:09:50.904Z,35.50
2023-01-25T19:11:56.248Z,33.63
2023-01-25T19:14:01.741Z,33.63
2023-01-25T19:16:09.664Z,37.30
2023-01-25T19:18:14.624Z,35.97
2023-01-25T19:20:21.133Z,34.72
2023-01-25T19:22:26.145Z,34.75
2023-01-25T19:24:31.074Z,37.70
2023-01-25T19:26:38.714Z,37.75
2023-01-25T19:28:44.109Z,36.30
2023-01-25T19:30:49.319Z,35.47
2023-01-25T19:32:54.295Z,38.70
2023-01-25T19:34:59.488Z,35.00
2023-01-25T19:37:04.393Z,32.38
2023-01-25T19:39:11.514Z,37.22
2023-01-25T19:41:18.676Z,31.20
2023-01-25T19:43:26.397Z,35.47
2023-01-25T19:45:31.359Z,31.20
2023-01-25T19:47:36.922Z,34.67
2023-01-25T19:49:42.280Z,33.53
2023-01-25T19:51:52.955Z,35.47
2023-01-25T19:54:03.020Z,34.53
2023-01-25T19:56:11.001Z,36.85
2023-01-25T19:58:15.857Z,39.35
2023-01-25T20:00:24.753Z,37.53
2023-01-25T20:02:29.666Z,30.45
2023-01-25T20:04:34.784Z,36.92
2023-01-25T20:06:39.998Z,35.83
2023-01-25T20:08:47.309Z,33.30
2023-01-25T20:10:52.515Z,42.72
2023-01-25T20:12:58.185Z,38.42
2023-01-25T20:15:03.501Z,38.78
2023-01-25T20:17:11.834Z,39.88
2023-01-25T20:19:17.563Z,37.97
2023-01-25T20:21:25.348Z,40.50
2023-01-25T20:23:34.829Z,37.08
2023-01-25T20:25:39.890Z,37.65
2023-01-25T20:27:44.797Z,43.08
2023-01-25T20:29:50.053Z,35.50
2023-01-25T20:31:55.681Z,38.42
2023-01-25T20:34:05.572Z,35.13
2023-01-25T20:36:11.486Z,39.85
2023-01-25T20:38:16.624Z,39.30
2023-01-25T20:40:21.755Z,40.03
2023-01-25T20:42:26.831Z,40.22
2023-01-25T20:44:31.732Z,41.40
2023-01-25T20:46:38.698Z,42.38
2023-01-25T20:48:49.325Z,44.22
2023-01-25T20:51:04.177Z,35.85
2023-01-25T20:53:09.088Z,40.17
2023-01-25T20:55:14.399Z,43.55
2023-01-25T20:57:19.281Z,44.35
2023-01-25T20:59:24.133Z,39.03
2023-01-25T21:01:35.431Z,42.13
2023-01-25T21:03:40.779Z,40.63
2023-01-25T21:05:52.959Z,42.85
2023-01-25T21:08:00.672Z,43.38
2023-01-25T21:10:05.768Z,42.33
2023-01-25T21:12:10.771Z,50.33
2023-01-25T21:14:15.736Z,42.58
2023-01-25T21:16:23.489Z,45.90
2023-01-25T21:18:31.273Z,42.78
2023-01-25T21:20:36.444Z,42.25
2023-01-25T21:22:42.056Z,45.45
2023-01-25T21:24:49.880Z,43.03
2023-01-25T21:26:54.736Z,43.45
2023-01-25T21:29:02.000Z,46.72
2023-01-25T21:31:12.876Z,44.90
2023-01-25T21:33:18.015Z,46.67
2023-01-25T21:35:22.883Z,43.08
2023-01-25T21:37:27.806Z,48.53
2023-01-25T21:39:32.682Z,47.95
2023-01-25T21:41:40.128Z,41.20
2023-01-25T21:43:58.049Z,42.22
2023-01-25T21:46:25.437Z,39.63
2023-01-25T21:48:42.951Z,46.50
2023-01-25T21:51:00.652Z,49.42
2023-01-25T21:53:05.508Z,46.85
2023-01-25T21:55:12.709Z,39.75
2023-01-25T21:57:20.958Z,43.33
2023-01-25T21:59:26.673Z,44.55
2023-01-25T22:01:32.149Z,46.47
2023-01-25T22:03:37.166Z,52.75
2023-01-25T22:05:43.989Z,46.63
2023-01-25T22:07:48.887Z,46.63
2023-01-25T22:09:53.741Z,48.08
2023-01-25T22:11:58.816Z,50.88
2023-01-25T22:14:06.246Z,48.05
2023-01-25T22:16:12.946Z,52.25
2023-01-25T22:18:18.264Z,48.28
2023-01-25T22:20:23.133Z,43.47
2023-01-25T22:22:28.058Z,48.13
2023-01-25T22:24:32.961Z,44.50
2023-01-25T22:26:53.102Z,44.53
2023-01-25T22:29:00.284Z,50.28
2023-01-25T22:31:07.953Z,45.08
2023-01-25T22:33:12.911Z,47.17
2023-01-25T22:35:18.011Z,48.50
2023-01-25T22:37:23.460Z,51.67
2023-01-25T22:39:28.832Z,44.03
2023-01-25T22:41:38.487Z,45.88
2023-01-25T22:43:44.168Z,41.58
2023-01-25T22:45:53.537Z,45.78
2023-01-25T22:48:01.249Z,46.15
2023-01-25T22:50:06.852Z,43.78
2023-01-25T22:52:11.720Z,38.90
2023-01-25T22:54:16.949Z,41.13
2023-01-25T22:56:25.167Z,40.38
2023-01-25T22:58:30.145Z,35.63
2023-01-25T23:00:35.478Z,39.70
2023-01-25T23:02:40.591Z,41.67
2023-01-25T23:04:48.551Z,44.55
2023-01-25T23:07:13.097Z,36.35
2023-01-25T23:09:17.993Z,38.42
2023-01-25T23:11:32.510Z,36.88
2023-01-25T23:13:39.844Z,36.47
2023-01-25T23:15:43.741Z,36.58
2023-01-25T23:18:01.728Z,39.05
2023-01-25T23:20:12.544Z,37.17
2023-01-25T23:22:18.304Z,37.40
2023-01-25T23:24:27.075Z,38.58
2023-01-25T23:26:38.076Z,36.33
2023-01-25T23:28:43.436Z,37.50
2023-01-25T23:30:48.426Z,38.50
2023-01-25T23:32:53.491Z,45.75
2023-01-25T23:34:58.372Z,35.58
2023-01-25T23:37:06.545Z,33.40
2023-01-25T23:39:15.189Z,38.28
2023-01-25T23:41:22.797Z,38.67
2023-01-25T23:43:27.698Z,35.53
2023-01-25T23:45:32.746Z,37.20
2023-01-25T23:47:38.428Z,41.33
2023-01-25T23:49:43.701Z,42.80
2023-01-25T23:51:48.982Z,39.30
2023-01-25T23:53:57.773Z,39.42
2023-01-25T23:56:06.085Z,38.28
2023-01-25T23:58:10.955Z,31.45
